Time;durP1;ratioP1;P1;durP2;ratioP2;P2;SDS_P1;SDS_P2;PMS_P1;PMS_P2;Temp;Humidity;BMP_temperature;BMP_pressure;BME280_temperature;BME280_humidity;BME280_pressure;Samples;Min_cycle;Max_cycle;Signal;HPM_P1;HPM_P2
2023/08/16 00:00:33;;;;;;;4.20;3.80;;;;;24.60;100809.00;;;;2075413;28;21002;-62
2023/08/16 00:01:33;;;;;;;4.07;3.67;;;;;24.60;100803.00;;;;2056562;28;20221;-62
2023/08/16 00:02:33;;;;;;;4.10;3.80;;;;;24.60;100798.00;;;;2068136;28;20915;-62
2023/08/16 00:03:34;;;;;;;4.10;3.70;;;;;24.60;100797.00;;;;2076410;28;20652;-62
2023/08/16 00:04:34;;;;;;;5.37;4.27;;;;;24.60;100802.00;;;;2078124;28;20218;-63
2023/08/16 00:05:36;;;;;;;5.30;4.20;;;;;24.60;100803.00;;;;2075882;28;20225;-63
2023/08/16 00:06:36;;;;;;;4.07;3.67;;;;;24.60;100804.00;;;;2058123;28;20299;-63
2023/08/16 00:07:36;;;;;;;4.67;4.27;;;;;24.50;100807.00;;;;2076493;28;20299;-63
2023/08/16 00:08:37;;;;;;;5.03;4.43;;;;;24.60;100812.00;;;;2076291;28;20228;-62
2023/08/16 00:09:40;;;;;;;3.73;3.50;;;;;24.60;100797.00;;;;2073994;28;20555;-63
2023/08/16 00:10:40;;;;;;;4.78;4.00;;;;;24.60;100805.00;;;;2071682;28;20326;-63
2023/08/16 00:11:41;;;;;;;4.50;3.80;;;;;24.60;100804.00;;;;2066551;28;20697;-63
2023/08/16 00:12:41;;;;;;;4.17;3.80;;;;;24.50;100806.00;;;;2078234;28;20205;-63
2023/08/16 00:13:41;;;;;;;4.43;3.90;;;;;24.50;100800.00;;;;2074552;28;20225;-60
2023/08/16 00:14:42;;;;;;;4.80;4.23;;;;;24.50;100797.00;;;;2070406;28;20220;-62
2023/08/16 00:15:42;;;;;;;5.27;4.13;;;;;24.50;100800.00;;;;2063060;28;20270;-63
2023/08/16 00:16:43;;;;;;;3.73;3.40;;;;;24.50;100808.00;;;;2064504;28;20229;-63
2023/08/16 00:17:43;;;;;;;5.03;3.70;;;;;24.50;100803.00;;;;2076288;28;20213;-63
2023/08/16 00:18:43;;;;;;;4.10;3.80;;;;;24.50;100800.00;;;;2077236;28;20307;-63
2023/08/16 00:19:44;;;;;;;4.83;4.10;;;;;24.50;100795.00;;;;2077120;28;20205;-63
2023/08/16 00:20:44;;;;;;;4.30;3.90;;;;;24.50;100801.00;;;;2055964;28;20215;-63
2023/08/16 00:21:45;;;;;;;3.87;3.57;;;;;24.50;100802.00;;;;2065357;28;20702;-63
2023/08/16 00:22:45;;;;;;;4.03;3.47;;;;;24.50;100794.00;;;;2074899;28;20217;-63
2023/08/16 00:23:45;;;;;;;4.73;3.43;;;;;24.50;100786.00;;;;2076171;28;20228;-63
2023/08/16 00:24:46;;;;;;;4.50;3.60;;;;;24.50;100797.00;;;;2076167;28;20666;-62
2023/08/16 00:25:46;;;;;;;3.83;3.40;;;;;24.50;100793.00;;;;2077394;28;20213;-61
2023/08/16 00:26:46;;;;;;;4.37;3.63;;;;;24.50;100788.00;;;;2069550;28;20214;-61
2023/08/16 00:27:48;;;;;;;5.33;3.70;;;;;24.50;100678.00;;;;2076051;28;20217;-61
2023/08/16 00:28:49;;;;;;;5.75;4.20;;;;;24.50;100789.00;;;;2069797;28;20202;-62
2023/08/16 00:29:49;;;;;;;5.10;4.30;;;;;24.50;100788.00;;;;2074672;28;20218;-62
2023/08/16 00:30:55;;;;;;;5.00;4.37;;;;;24.50;100784.00;;;;2077205;28;20545;-62
2023/08/16 00:31:57;;;;;;;4.47;3.30;;;;;24.50;100792.00;;;;2050176;28;20223;-62
2023/08/16 00:32:58;;;;;;;3.17;2.88;;;;;24.50;100793.00;;;;2061736;28;20226;-62
2023/08/16 00:33:58;;;;;;;5.53;4.17;;;;;24.50;100792.00;;;;2068694;28;20206;-62
2023/08/16 00:34:58;;;;;;;4.27;3.77;;;;;24.50;100791.00;;;;2075201;28;20233;-63
2023/08/16 00:35:59;;;;;;;4.53;3.60;;;;;24.50;100786.00;;;;2077288;28;20336;-62
2023/08/16 00:36:59;;;;;;;3.83;3.40;;;;;24.50;100791.00;;;;2063792;28;20272;-61
2023/08/16 00:38:00;;;;;;;4.43;3.70;;;;;24.50;100784.00;;;;2065879;28;20221;-62
2023/08/16 00:39:00;;;;;;;4.10;3.80;;;;;24.50;100788.00;;;;2074715;28;20210;-62
2023/08/16 00:40:00;;;;;;;3.90;3.57;;;;;24.50;100790.00;;;;2077725;28;20259;-62
2023/08/16 00:41:01;;;;;;;4.90;4.03;;;;;24.50;100789.00;;;;2076844;28;20217;-63
2023/08/16 00:42:01;;;;;;;4.90;4.40;;;;;24.50;100793.00;;;;2062441;28;20229;-63
2023/08/16 00:43:03;;;;;;;4.63;4.17;;;;;24.50;100792.00;;;;2077554;28;20268;-61
2023/08/16 00:44:03;;;;;;;4.25;3.63;;;;;24.50;100797.00;;;;2072769;28;20217;-63
2023/08/16 00:45:05;;;;;;;3.70;3.03;;;;;24.50;100793.00;;;;2077126;28;20213;-62
2023/08/16 00:46:10;;;;;;;5.80;3.65;;;;;24.50;100796.00;;;;2066580;28;20944;-61
2023/08/16 00:47:10;;;;;;;4.13;3.72;;;;;24.50;100796.00;;;;2054521;28;20264;-62
2023/08/16 00:48:11;;;;;;;4.60;3.80;;;;;24.50;100775.00;;;;2073464;28;20639;-63
2023/08/16 00:49:11;;;;;;;3.90;3.60;;;;;24.50;100786.00;;;;2065061;28;20388;-63
2023/08/16 00:50:11;;;;;;;3.70;3.30;;;;;24.50;100790.00;;;;2058857;28;20888;-63
2023/08/16 00:51:12;;;;;;;3.20;2.90;;;;;24.50;100792.00;;;;2057507;28;20257;-61
2023/08/16 00:52:12;;;;;;;3.80;3.40;;;;;24.50;100791.00;;;;2045947;28;20216;-62
2023/08/16 00:53:14;;;;;;;4.20;3.80;;;;;24.50;100786.00;;;;2068839;28;20884;-63
2023/08/16 00:54:14;;;;;;;3.93;3.53;;;;;24.50;100784.00;;;;2061109;28;20246;-62
2023/08/16 00:55:15;;;;;;;3.80;3.50;;;;;24.50;100782.00;;;;2053057;28;20462;-63
2023/08/16 00:56:15;;;;;;;6.20;3.77;;;;;24.50;100779.00;;;;2066871;28;20226;-63
2023/08/16 00:57:15;;;;;;;3.90;3.57;;;;;24.50;100787.00;;;;2054047;28;20337;-62
2023/08/16 00:58:16;;;;;;;4.90;3.60;;;;;24.60;100780.00;;;;2060684;28;20266;-60
2023/08/16 00:59:16;;;;;;;3.63;3.33;;;;;24.60;100777.00;;;;2064299;28;20845;-62
2023/08/16 01:00:16;;;;;;;4.37;3.37;;;;;24.50;100776.00;;;;2065605;28;20211;-60
2023/08/16 01:01:17;;;;;;;4.47;3.20;;;;;24.60;100767.00;;;;2073230;28;20218;-61
2023/08/16 01:02:17;;;;;;;4.47;3.60;;;;;24.60;100772.00;;;;2053556;28;20300;-61
2023/08/16 01:03:18;;;;;;;3.73;3.30;;;;;24.60;100767.00;;;;2066888;28;20317;-61
2023/08/16 01:04:19;;;;;;;4.63;3.90;;;;;24.60;100774.00;;;;2076433;28;20577;-62
2023/08/16 01:05:19;;;;;;;5.10;3.60;;;;;24.60;100749.00;;;;2073408;28;20212;-62
2023/08/16 01:06:20;;;;;;;6.93;3.73;;;;;24.60;100771.00;;;;2074617;28;20288;-62
2023/08/16 01:07:20;;;;;;;5.20;3.60;;;;;24.60;100770.00;;;;2060839;28;20221;-62
2023/08/16 01:08:20;;;;;;;5.70;3.50;;;;;24.60;100768.00;;;;2081045;28;20218;-61
2023/08/16 01:09:21;;;;;;;6.47;3.60;;;;;24.60;100770.00;;;;2066965;28;20225;-61
2023/08/16 01:10:25;;;;;;;4.10;3.80;;;;;24.60;100777.00;;;;2073737;28;20213;-61
2023/08/16 01:11:35;;;;;;;4.82;3.90;;;;;24.60;100760.00;;;;2068760;28;20592;-61
2023/08/16 01:12:51;;;;;;;4.20;3.35;;;;;24.60;100767.00;;;;2066798;28;20217;-61
2023/08/16 01:13:51;;;;;;;3.40;3.10;;;;;24.60;100776.00;;;;2056707;28;20218;-61
2023/08/16 01:14:57;;;;;;;4.17;3.43;;;;;24.60;100777.00;;;;2067450;28;20238;-61
2023/08/16 01:15:57;;;;;;;5.38;3.35;;;;;24.60;100765.00;;;;2075328;28;20222;-60
2023/08/16 01:16:58;;;;;;;6.53;4.10;;;;;24.60;100747.00;;;;2046815;28;20234;-61
2023/08/16 01:17:58;;;;;;;4.40;3.60;;;;;24.60;100775.00;;;;2048224;28;20685;-62
2023/08/16 01:18:59;;;;;;;4.00;3.57;;;;;24.60;100770.00;;;;2052821;28;20997;-62
2023/08/16 01:19:59;;;;;;;4.53;3.83;;;;;24.60;100768.00;;;;2059892;28;20601;-60
2023/08/16 01:20:59;;;;;;;4.83;3.30;;;;;24.60;100782.00;;;;2045429;28;20631;-62
2023/08/16 01:22:08;;;;;;;3.67;3.37;;;;;24.60;100761.00;;;;2050202;28;20215;-62
2023/08/16 01:23:12;;;;;;;4.80;3.97;;;;;24.60;100777.00;;;;2061024;28;20214;-62
2023/08/16 01:24:23;;;;;;;4.22;3.75;;;;;24.60;100769.00;;;;2057352;28;20238;-62
2023/08/16 01:25:23;;;;;;;6.07;3.40;;;;;24.60;100775.00;;;;2066034;28;20217;-61
2023/08/16 01:26:34;;;;;;;3.57;3.27;;;;;24.60;100764.00;;;;2071125;28;21158;-61
2023/08/16 01:27:35;;;;;;;5.28;3.50;;;;;24.60;100773.00;;;;2071323;28;20279;-62
2023/08/16 01:28:35;;;;;;;3.75;3.42;;;;;24.60;100775.00;;;;2063448;28;20258;-62
2023/08/16 01:29:36;;;;;;;4.67;3.73;;;;;24.60;100680.00;;;;2061776;28;20618;-62
2023/08/16 01:30:38;;;;;;;4.37;3.97;;;;;24.60;100771.00;;;;2062608;28;20628;-61
2023/08/16 01:31:38;;;;;;;4.10;3.80;;;;;24.60;100767.00;;;;2043970;28;20294;-61
2023/08/16 01:32:38;;;;;;;3.40;3.10;;;;;24.60;100768.00;;;;2055551;28;20219;-61
2023/08/16 01:33:39;;;;;;;3.80;3.50;;;;;24.60;100770.00;;;;2064838;28;20210;-61
2023/08/16 01:34:39;;;;;;;3.10;2.90;;;;;24.60;100772.00;;;;2073319;28;20213;-62
2023/08/16 01:35:39;;;;;;;4.20;3.40;;;;;24.60;100774.00;;;;2074808;28;20995;-61
2023/08/16 01:36:40;;;;;;;4.03;3.47;;;;;24.60;100770.00;;;;2065498;28;20603;-62
2023/08/16 01:37:41;;;;;;;5.63;3.47;;;;;24.60;100769.00;;;;2060460;28;20211;-62
2023/08/16 01:38:41;;;;;;;3.50;3.20;;;;;24.60;100779.00;;;;2067111;28;20205;-62
2023/08/16 01:39:41;;;;;;;3.90;3.60;;;;;24.60;100770.00;;;;2075091;28;20284;-61
2023/08/16 01:40:49;;;;;;;5.10;4.10;;;;;24.60;100777.00;;;;2072752;28;20221;-62
2023/08/16 01:41:50;;;;;;;4.47;4.07;;;;;24.60;100777.00;;;;2051575;28;20223;-61
2023/08/16 01:42:50;;;;;;;4.17;3.77;;;;;24.60;100821.00;;;;2058964;28;20699;-62
2023/08/16 01:43:51;;;;;;;3.47;3.10;;;;;24.60;100775.00;;;;2067777;28;20304;-62
2023/08/16 01:44:52;;;;;;;3.78;3.45;;;;;24.60;100779.00;;;;2076186;28;20221;-62
2023/08/16 01:45:52;;;;;;;4.40;4.00;;;;;24.60;100780.00;;;;2058336;28;20223;-62
2023/08/16 01:46:53;;;;;;;4.30;3.90;;;;;24.60;100780.00;;;;2066781;28;20217;-62
2023/08/16 01:47:53;;;;;;;4.53;3.57;;;;;24.50;100783.00;;;;2075681;28;20942;-61
2023/08/16 01:48:55;;;;;;;3.90;3.23;;;;;24.60;100786.00;;;;2056558;28;20290;-62
2023/08/16 01:49:56;;;;;;;3.60;3.30;;;;;24.60;100775.00;;;;2057374;28;20215;-62
2023/08/16 01:50:56;;;;;;;3.67;3.37;;;;;24.60;100761.00;;;;2052842;28;20226;-61
2023/08/16 01:51:56;;;;;;;3.80;3.33;;;;;24.60;100779.00;;;;2037191;28;20231;-62
2023/08/16 01:52:57;;;;;;;4.93;3.90;;;;;24.60;100775.00;;;;2058353;28;20277;-62
2023/08/16 01:53:57;;;;;;;3.83;3.50;;;;;24.60;100783.00;;;;2065680;28;20313;-61
2023/08/16 01:54:57;;;;;;;3.97;3.67;;;;;24.60;100781.00;;;;2061469;28;20710;-62
2023/08/16 01:55:58;;;;;;;4.40;3.50;;;;;24.60;100780.00;;;;2073710;28;20626;-61
2023/08/16 01:56:58;;;;;;;4.67;4.00;;;;;24.60;100794.00;;;;2055954;28;20668;-68
2023/08/16 01:57:58;;;;;;;4.90;3.97;;;;;24.60;100781.00;;;;2075710;28;20384;-62
2023/08/16 01:58:59;;;;;;;5.13;3.50;;;;;24.60;100778.00;;;;2065998;28;20213;-66
2023/08/16 01:59:59;;;;;;;4.70;3.40;;;;;24.60;100782.00;;;;2058655;28;20214;-62
2023/08/16 02:01:00;;;;;;;4.23;3.13;;;;;24.60;100780.00;;;;2060595;28;20211;-60
2023/08/16 02:02:00;;;;;;;3.60;3.30;;;;;24.60;100774.00;;;;2056173;28;20214;-61
2023/08/16 02:03:01;;;;;;;4.20;3.30;;;;;24.60;100772.00;;;;2076840;28;20531;-61
2023/08/16 02:04:01;;;;;;;3.77;3.43;;;;;24.50;100777.00;;;;2074674;28;20205;-62
2023/08/16 02:05:02;;;;;;;4.60;3.23;;;;;24.50;100762.00;;;;2075443;28;20214;-62
2023/08/16 02:06:02;;;;;;;4.03;3.73;;;;;24.60;100767.00;;;;2076016;28;20260;-60
2023/08/16 02:07:02;;;;;;;4.27;3.37;;;;;24.50;100771.00;;;;2066584;28;20213;-61
2023/08/16 02:08:03;;;;;;;3.60;3.20;;;;;24.50;100777.00;;;;2075981;28;20214;-61
2023/08/16 02:09:03;;;;;;;5.27;3.27;;;;;24.50;100773.00;;;;2071799;28;20705;-61
2023/08/16 02:10:05;;;;;;;3.67;2.92;;;;;24.50;100778.00;;;;2072866;28;20631;-62
2023/08/16 02:11:05;;;;;;;3.50;3.10;;;;;24.50;100772.00;;;;2073779;28;20217;-61
2023/08/16 02:12:06;;;;;;;5.43;3.37;;;;;24.50;100772.00;;;;2058696;28;20255;-62
2023/08/16 02:13:07;;;;;;;4.32;3.38;;;;;24.50;100773.00;;;;2059364;28;20750;-61
2023/08/16 02:14:08;;;;;;;3.23;2.93;;;;;24.50;100775.00;;;;2067232;28;20211;-61
2023/08/16 02:15:08;;;;;;;3.97;3.47;;;;;24.50;100771.00;;;;2076370;28;20716;-61
2023/08/16 02:16:09;;;;;;;4.03;3.33;;;;;24.50;100776.00;;;;2071700;28;20214;-61
2023/08/16 02:17:09;;;;;;;3.73;3.43;;;;;24.50;100772.00;;;;2058935;28;20210;-60
2023/08/16 02:18:12;;;;;;;3.27;2.97;;;;;24.50;100776.00;;;;2075440;28;20213;-61
2023/08/16 02:19:13;;;;;;;3.20;2.90;;;;;24.50;100773.00;;;;2076652;28;20214;-60
2023/08/16 02:20:13;;;;;;;3.33;3.03;;;;;24.50;100755.00;;;;2073582;28;20305;-60
2023/08/16 02:21:13;;;;;;;3.47;3.20;;;;;24.50;100763.00;;;;2072590;28;20222;-61
2023/08/16 02:22:14;;;;;;;3.30;3.00;;;;;24.50;100765.00;;;;2066830;28;20224;-61
2023/08/16 02:23:14;;;;;;;5.73;3.00;;;;;24.50;100765.00;;;;2067195;28;20203;-62
2023/08/16 02:24:14;;;;;;;3.30;3.00;;;;;24.50;100764.00;;;;2068597;28;20269;-62
2023/08/16 02:25:15;;;;;;;3.20;2.90;;;;;24.50;100763.00;;;;2070748;28;20213;-62
2023/08/16 02:26:15;;;;;;;4.37;3.07;;;;;24.50;100761.00;;;;2054966;28;20824;-61
2023/08/16 02:27:15;;;;;;;3.07;2.77;;;;;24.50;100769.00;;;;2062798;28;20244;-60
2023/08/16 02:28:16;;;;;;;4.13;2.97;;;;;24.50;100770.00;;;;2066745;28;20217;-62
2023/08/16 02:29:16;;;;;;;2.80;2.60;;;;;24.50;100769.00;;;;2068281;28;20220;-60
2023/08/16 02:30:16;;;;;;;3.33;2.97;;;;;24.50;100771.00;;;;2071603;28;20225;-61
2023/08/16 02:31:17;;;;;;;3.90;3.30;;;;;24.50;100765.00;;;;2071017;28;20257;-60
2023/08/16 02:32:18;;;;;;;3.37;2.60;;;;;24.10;100771.00;;;;2057665;28;20221;-60
2023/08/16 02:33:18;;;;;;;2.97;2.77;;;;;24.40;100772.00;;;;2052116;28;20309;-60
2023/08/16 02:34:18;;;;;;;4.20;2.93;;;;;24.40;100750.00;;;;2071075;28;22626;-61
2023/08/16 02:35:19;;;;;;;5.60;3.23;;;;;24.40;100775.00;;;;2075227;28;20748;-61
2023/08/16 02:36:19;;;;;;;3.40;3.10;;;;;24.50;100770.00;;;;2069881;28;20623;-61
2023/08/16 02:37:20;;;;;;;3.33;3.00;;;;;24.50;100782.00;;;;2061411;28;20233;-60
2023/08/16 02:38:20;;;;;;;3.37;3.07;;;;;24.40;100770.00;;;;2069857;28;20204;-61
2023/08/16 02:39:20;;;;;;;3.00;2.70;;;;;24.40;100774.00;;;;2062292;28;20215;-61
2023/08/16 02:40:21;;;;;;;3.53;3.07;;;;;24.40;100772.00;;;;2060296;28;20210;-61
2023/08/16 02:41:21;;;;;;;2.93;2.50;;;;;24.40;100778.00;;;;2071422;28;20215;-61
2023/08/16 02:42:21;;;;;;;3.70;2.63;;;;;24.40;100779.00;;;;2064836;28;20220;-61
2023/08/16 02:43:22;;;;;;;3.20;2.90;;;;;24.50;100776.00;;;;2076492;28;20236;-59
2023/08/16 02:44:22;;;;;;;3.20;2.90;;;;;24.40;100770.00;;;;2070661;28;20700;-60
2023/08/16 02:45:22;;;;;;;3.50;3.20;;;;;24.40;100772.00;;;;2077040;28;20214;-61
2023/08/16 02:46:23;;;;;;;3.40;2.97;;;;;24.40;100781.00;;;;2074215;28;20208;-61
2023/08/16 02:47:23;;;;;;;3.50;3.20;;;;;24.40;100777.00;;;;2066203;28;20263;-61
2023/08/16 02:48:24;;;;;;;4.40;2.83;;;;;24.40;100777.00;;;;2076226;28;20232;-60
2023/08/16 02:49:24;;;;;;;3.13;2.70;;;;;24.40;100769.00;;;;2073165;28;20240;-61
2023/08/16 02:50:24;;;;;;;3.60;2.70;;;;;24.40;100770.00;;;;2076032;28;20312;-60
2023/08/16 02:51:25;;;;;;;3.67;2.80;;;;;24.40;100772.00;;;;2072344;28;20222;-60
2023/08/16 02:52:25;;;;;;;3.33;2.90;;;;;24.40;100768.00;;;;2064055;28;20218;-60
2023/08/16 02:53:25;;;;;;;4.23;3.03;;;;;24.40;100774.00;;;;2074443;28;20217;-61
2023/08/16 02:54:26;;;;;;;3.30;3.00;;;;;24.40;100778.00;;;;2075998;28;20305;-61
2023/08/16 02:55:26;;;;;;;3.17;2.87;;;;;24.40;100783.00;;;;2076199;28;20217;-60
2023/08/16 02:56:26;;;;;;;2.40;2.20;;;;;24.40;100772.00;;;;2069042;28;20810;-62
2023/08/16 02:57:27;;;;;;;2.97;2.77;;;;;24.40;100784.00;;;;2058867;28;20730;-60
2023/08/16 02:58:27;;;;;;;3.30;3.03;;;;;24.40;100774.00;;;;2054802;28;21903;-60
2023/08/16 02:59:27;;;;;;;2.77;2.57;;;;;24.40;100768.00;;;;2071381;28;20217;-60
2023/08/16 03:00:29;;;;;;;3.50;3.20;;;;;24.40;100772.00;;;;2064989;28;20256;-61
2023/08/16 03:01:30;;;;;;;5.28;2.42;;;;;24.40;100778.00;;;;2063882;28;20229;-61
2023/08/16 03:02:32;;;;;;;3.27;2.97;;;;;24.40;100771.00;;;;2075183;28;20221;-61
2023/08/16 03:03:32;;;;;;;4.53;3.38;;;;;24.40;100770.00;;;;2074589;28;20213;-61
2023/08/16 03:04:33;;;;;;;4.10;3.03;;;;;24.40;100814.00;;;;2072436;28;20366;-62
2023/08/16 03:05:33;;;;;;;2.70;2.50;;;;;24.40;100769.00;;;;2072164;28;20214;-60
2023/08/16 03:06:34;;;;;;;2.50;2.30;;;;;24.40;100779.00;;;;2064615;28;20682;-61
2023/08/16 03:07:34;;;;;;;4.17;2.50;;;;;24.40;100775.00;;;;2076606;28;20205;-62
2023/08/16 03:08:34;;;;;;;2.80;2.60;;;;;24.30;100776.00;;;;2074889;28;20214;-62
2023/08/16 03:09:35;;;;;;;3.60;2.80;;;;;24.40;100772.00;;;;2074550;28;20213;-62
2023/08/16 03:10:35;;;;;;;4.23;2.70;;;;;24.30;100773.00;;;;2076559;28;20206;-62
2023/08/16 03:11:35;;;;;;;4.57;2.83;;;;;24.40;100772.00;;;;2064669;28;20209;-60
2023/08/16 03:12:36;;;;;;;2.73;2.50;;;;;24.40;100776.00;;;;2076117;28;20847;-61
2023/08/16 03:13:36;;;;;;;3.67;2.90;;;;;24.40;100776.00;;;;2074882;28;20631;-67
2023/08/16 03:14:36;;;;;;;2.90;2.70;;;;;24.40;100770.00;;;;2074059;28;20312;-60
2023/08/16 03:15:37;;;;;;;3.87;3.03;;;;;24.40;100775.00;;;;2072159;28;20217;-60
2023/08/16 03:16:37;;;;;;;3.37;2.67;;;;;24.40;100771.00;;;;2064815;28;20283;-60
2023/08/16 03:17:37;;;;;;;2.70;2.47;;;;;24.30;100773.00;;;;2076806;28;20615;-61
2023/08/16 03:18:38;;;;;;;3.47;2.40;;;;;24.30;100710.00;;;;2075595;28;20585;-60
2023/08/16 03:19:38;;;;;;;3.50;2.70;;;;;24.40;100777.00;;;;2076732;28;20646;-59
2023/08/16 03:20:38;;;;;;;3.10;2.50;;;;;24.40;100768.00;;;;2074857;28;20301;-61
2023/08/16 03:21:39;;;;;;;2.90;2.70;;;;;24.40;100776.00;;;;2066797;28;20220;-60
2023/08/16 03:22:39;;;;;;;3.20;2.43;;;;;24.30;100771.00;;;;2076591;28;20279;-61
2023/08/16 03:23:39;;;;;;;2.70;2.50;;;;;24.30;100763.00;;;;2075584;28;20214;-61
2023/08/16 03:24:40;;;;;;;3.40;2.83;;;;;24.40;100771.00;;;;2075616;28;20264;-62
2023/08/16 03:25:41;;;;;;;2.97;2.77;;;;;24.00;100771.00;;;;2070662;28;20269;-61
2023/08/16 03:26:41;;;;;;;2.70;2.50;;;;;24.30;100775.00;;;;2064312;28;20301;-61
2023/08/16 03:27:41;;;;;;;4.87;2.60;;;;;24.30;100771.00;;;;2073585;28;20272;-61
2023/08/16 03:28:42;;;;;;;3.00;2.70;;;;;24.40;100774.00;;;;2065656;28;20604;-62
2023/08/16 03:29:42;;;;;;;2.73;2.50;;;;;24.30;100775.00;;;;2079722;28;20288;-60
2023/08/16 03:30:43;;;;;;;2.70;2.50;;;;;24.30;100780.00;;;;2073588;28;20210;-61
2023/08/16 03:31:43;;;;;;;2.87;2.67;;;;;24.30;100776.00;;;;2066934;28;20210;-60
2023/08/16 03:32:43;;;;;;;2.70;2.50;;;;;24.30;100776.00;;;;2073533;28;20743;-60
2023/08/16 03:33:43;;;;;;;2.57;2.37;;;;;24.30;100784.00;;;;2075486;28;20209;-62
2023/08/16 03:34:44;;;;;;;2.70;2.47;;;;;24.30;100780.00;;;;2074123;28;20206;-61
2023/08/16 03:35:44;;;;;;;4.10;2.70;;;;;24.40;100780.00;;;;2069127;28;20298;-59
2023/08/16 03:36:45;;;;;;;3.43;2.80;;;;;24.00;100780.00;;;;2058474;28;20226;-61
2023/08/16 03:37:45;;;;;;;3.73;3.20;;;;;24.30;100781.00;;;;2070613;28;20226;-60
2023/08/16 03:38:45;;;;;;;3.67;2.70;;;;;24.30;100782.00;;;;2074102;28;20212;-60
2023/08/16 03:39:46;;;;;;;3.10;2.87;;;;;24.30;100784.00;;;;2065989;28;20221;-60
2023/08/16 03:40:46;;;;;;;2.90;2.70;;;;;24.30;100786.00;;;;2069785;28;20302;-60
2023/08/16 03:41:46;;;;;;;3.83;3.10;;;;;24.30;100785.00;;;;2067578;28;20228;-60
2023/08/16 03:42:47;;;;;;;3.33;2.80;;;;;24.30;100779.00;;;;2069359;28;20305;-60
2023/08/16 03:43:47;;;;;;;2.80;2.60;;;;;24.30;100780.00;;;;2075130;28;20217;-60
2023/08/16 03:44:47;;;;;;;3.40;2.40;;;;;24.30;100777.00;;;;2071616;28;20610;-60
2023/08/16 03:45:48;;;;;;;3.20;2.90;;;;;24.30;100781.00;;;;2061322;28;20210;-60
2023/08/16 03:46:48;;;;;;;4.03;2.80;;;;;24.30;100778.00;;;;2041495;28;20238;-60
2023/08/16 03:47:49;;;;;;;5.37;2.73;;;;;24.30;100778.00;;;;2061082;28;20289;-61
2023/08/16 03:48:49;;;;;;;3.03;2.73;;;;;24.30;100781.00;;;;2070928;28;20198;-59
2023/08/16 03:49:49;;;;;;;4.40;2.33;;;;;24.30;100776.00;;;;2077161;28;20300;-61
2023/08/16 03:50:50;;;;;;;3.27;2.20;;;;;24.30;100786.00;;;;2076197;28;20209;-59
2023/08/16 03:51:50;;;;;;;2.90;2.60;;;;;24.30;100779.00;;;;2066834;28;20240;-60
2023/08/16 03:52:51;;;;;;;4.32;2.50;;;;;24.30;100717.00;;;;2076829;28;20221;-61
2023/08/16 03:53:51;;;;;;;3.27;2.97;;;;;24.30;100785.00;;;;2068280;28;20577;-61
2023/08/16 03:54:53;;;;;;;3.47;2.50;;;;;24.30;100784.00;;;;2079086;28;20260;-60
2023/08/16 03:55:57;;;;;;;3.53;2.95;;;;;24.30;100787.00;;;;2076012;28;20201;-61
2023/08/16 03:56:58;;;;;;;3.22;2.72;;;;;24.30;100783.00;;;;2066289;28;20238;-61
2023/08/16 03:57:58;;;;;;;2.85;2.53;;;;;24.30;100787.00;;;;2077199;28;20205;-60
2023/08/16 03:58:59;;;;;;;3.90;3.17;;;;;24.30;100794.00;;;;2072216;28;20210;-61
2023/08/16 03:59:59;;;;;;;3.83;2.80;;;;;24.30;100790.00;;;;2071661;28;20214;-60
2023/08/16 04:00:59;;;;;;;4.00;3.10;;;;;24.30;100785.00;;;;2074725;28;20231;-61
2023/08/16 04:02:00;;;;;;;4.20;3.00;;;;;24.30;100786.00;;;;2048018;28;20306;-60
2023/08/16 04:03:00;;;;;;;2.87;2.67;;;;;24.30;100814.00;;;;2069427;28;20222;-62
2023/08/16 04:04:00;;;;;;;3.53;2.70;;;;;24.30;100791.00;;;;2075725;28;20686;-60
2023/08/16 04:05:07;;;;;;;3.30;3.00;;;;;24.30;100788.00;;;;2078641;28;20271;-60
2023/08/16 04:06:11;;;;;;;3.60;3.30;;;;;24.30;100786.00;;;;2078672;28;20217;-61
2023/08/16 04:07:11;;;;;;;3.17;2.53;;;;;24.30;100782.00;;;;2063737;28;20225;-64
2023/08/16 04:08:11;;;;;;;3.10;2.80;;;;;24.30;100789.00;;;;2077375;28;20243;-61
2023/08/16 04:09:12;;;;;;;4.17;2.90;;;;;24.30;100787.00;;;;2078828;28;20213;-61
2023/08/16 04:10:12;;;;;;;3.30;2.60;;;;;24.30;100788.00;;;;2078935;28;20235;-61
2023/08/16 04:11:13;;;;;;;3.40;2.87;;;;;24.30;100791.00;;;;2069757;28;20245;-61
2023/08/16 04:12:13;;;;;;;4.30;2.13;;;;;24.30;100790.00;;;;2068827;28;20300;-60
2023/08/16 04:13:13;;;;;;;3.03;2.83;;;;;24.30;100781.00;;;;2066550;28;20210;-60
2023/08/16 04:14:13;;;;;;;3.30;2.80;;;;;24.30;100785.00;;;;2065721;28;20206;-61
2023/08/16 04:15:14;;;;;;;5.10;2.77;;;;;24.30;100788.00;;;;2068061;28;20256;-61
2023/08/16 04:16:14;;;;;;;3.60;2.50;;;;;24.30;100784.00;;;;2075942;28;20209;-61
2023/08/16 04:17:14;;;;;;;4.50;3.00;;;;;24.30;100783.00;;;;2067673;28;20221;-60
2023/08/16 04:18:15;;;;;;;3.03;2.60;;;;;24.30;100782.00;;;;2074255;28;20210;-60
2023/08/16 04:19:15;;;;;;;2.70;2.50;;;;;24.30;100780.00;;;;2077450;28;20300;-60
2023/08/16 04:20:15;;;;;;;3.20;2.90;;;;;24.30;100787.00;;;;2079589;28;20217;-60
2023/08/16 04:21:16;;;;;;;3.80;3.10;;;;;24.30;100778.00;;;;2073735;28;20222;-61
2023/08/16 04:22:17;;;;;;;3.47;2.83;;;;;24.30;100783.00;;;;2060670;28;20231;-60
2023/08/16 04:23:17;;;;;;;3.93;2.80;;;;;24.30;100782.00;;;;2067803;28;20202;-61
2023/08/16 04:24:17;;;;;;;3.60;3.30;;;;;24.30;100788.00;;;;2071497;28;20295;-61
2023/08/16 04:25:18;;;;;;;2.93;2.70;;;;;24.30;100800.00;;;;2077392;28;20228;-60
2023/08/16 04:26:18;;;;;;;3.30;2.60;;;;;24.30;100797.00;;;;2075884;28;20224;-61
2023/08/16 04:27:19;;;;;;;2.83;2.63;;;;;24.30;100801.00;;;;2069383;28;20217;-61
2023/08/16 04:28:19;;;;;;;4.00;2.90;;;;;24.30;100796.00;;;;2078238;28;20217;-61
2023/08/16 04:29:19;;;;;;;2.70;2.50;;;;;24.30;100789.00;;;;2077462;28;20214;-62
2023/08/16 04:30:20;;;;;;;3.40;3.10;;;;;23.90;100797.00;;;;2069551;28;20718;-62
2023/08/16 04:31:20;;;;;;;4.63;3.07;;;;;24.30;100798.00;;;;2070504;28;20214;-60
2023/08/16 04:32:21;;;;;;;2.63;2.33;;;;;24.30;100795.00;;;;2069364;28;20229;-61
2023/08/16 04:33:21;;;;;;;2.60;2.40;;;;;24.30;100795.00;;;;2078320;28;20210;-62
2023/08/16 04:34:22;;;;;;;3.40;3.10;;;;;24.30;100785.00;;;;2075565;28;20214;-62
2023/08/16 04:35:23;;;;;;;2.70;2.50;;;;;24.30;100799.00;;;;2076284;28;20218;-62
2023/08/16 04:36:23;;;;;;;3.05;2.65;;;;;24.30;100799.00;;;;2075705;28;20304;-61
2023/08/16 04:37:24;;;;;;;4.07;3.10;;;;;24.30;100801.00;;;;2068226;28;20287;-62
2023/08/16 04:38:24;;;;;;;3.77;3.47;;;;;24.30;100795.00;;;;2077938;28;20713;-62
2023/08/16 04:39:24;;;;;;;6.00;3.67;;;;;24.30;100803.00;;;;2076437;28;20649;-62
2023/08/16 04:40:25;;;;;;;2.90;2.60;;;;;24.30;100799.00;;;;2063223;28;20226;-61
2023/08/16 04:41:25;;;;;;;3.50;3.20;;;;;24.30;100798.00;;;;2078561;28;20210;-61
2023/08/16 04:42:26;;;;;;;3.50;3.20;;;;;24.30;100804.00;;;;2068613;28;20681;-61
2023/08/16 04:43:26;;;;;;;3.20;2.90;;;;;24.30;100806.00;;;;2078234;28;20286;-62
2023/08/16 04:44:27;;;;;;;5.03;3.30;;;;;24.30;100805.00;;;;2077286;28;20209;-60
2023/08/16 04:45:27;;;;;;;3.83;3.43;;;;;24.30;100813.00;;;;2074661;28;20360;-61
2023/08/16 04:46:27;;;;;;;2.77;2.57;;;;;24.30;100817.00;;;;2064772;28;20225;-62
2023/08/16 04:47:28;;;;;;;3.83;3.00;;;;;24.30;100809.00;;;;2076027;28;20216;-62
2023/08/16 04:48:28;;;;;;;2.80;2.50;;;;;24.30;100815.00;;;;2077559;28;20214;-62
2023/08/16 04:49:28;;;;;;;2.90;2.70;;;;;24.30;100819.00;;;;2072831;28;20300;-61
2023/08/16 04:50:29;;;;;;;3.43;3.03;;;;;24.30;100820.00;;;;2072057;28;20237;-60
2023/08/16 04:51:29;;;;;;;3.93;3.30;;;;;24.30;100829.00;;;;2067253;28;20241;-61
2023/08/16 04:52:29;;;;;;;3.70;3.13;;;;;24.30;100832.00;;;;2078295;28;20229;-61
2023/08/16 04:53:30;;;;;;;3.33;3.03;;;;;24.30;100852.00;;;;2076522;28;20214;-61
2023/08/16 04:54:30;;;;;;;3.07;2.87;;;;;24.30;100839.00;;;;2069140;28;20765;-60
2023/08/16 04:55:30;;;;;;;2.90;2.60;;;;;24.30;100831.00;;;;2075701;28;20720;-61
2023/08/16 04:56:31;;;;;;;3.20;2.90;;;;;24.30;100843.00;;;;2062682;28;20217;-61
2023/08/16 04:57:31;;;;;;;3.13;2.70;;;;;24.30;100836.00;;;;2071810;28;20214;-61
2023/08/16 04:58:31;;;;;;;3.00;2.70;;;;;24.30;100834.00;;;;2076719;28;20300;-60
2023/08/16 04:59:32;;;;;;;2.80;2.60;;;;;24.30;100835.00;;;;2077831;28;20225;-61
2023/08/16 05:00:33;;;;;;;3.73;3.00;;;;;24.30;100831.00;;;;2076111;28;20213;-61